sensor_id;sensor_type;location;lat;lon;timestamp;P1;durP1;ratioP1;P2;durP2;ratioP2
31754;SDS011;18325;52.018;4.726;2023-06-22T00:01:18;9.77;;;6.40;;
31754;SDS011;18325;52.018;4.726;2023-06-22T00:03:46;8.27;;;5.95;;
31754;SDS011;18325;52.018;4.726;2023-06-22T00:06:12;9.45;;;6.38;;
31754;SDS011;18325;52.018;4.726;2023-06-22T00:08:39;12.20;;;6.68;;
31754;SDS011;18325;52.018;4.726;2023-06-22T00:11:06;11.77;;;6.53;;
31754;SDS011;18325;52.018;4.726;2023-06-22T00:13:33;10.45;;;6.10;;
31754;SDS011;18325;52.018;4.726;2023-06-22T00:16:00;9.38;;;6.47;;
31754;SDS011;18325;52.018;4.726;2023-06-22T00:18:27;9.57;;;6.75;;
31754;SDS011;18325;52.018;4.726;2023-06-22T00:20:55;11.65;;;6.88;;
31754;SDS011;18325;52.018;4.726;2023-06-22T00:23:23;12.07;;;6.57;;
31754;SDS011;18325;52.018;4.726;2023-06-22T00:25:50;9.60;;;6.68;;
31754;SDS011;18325;52.018;4.726;2023-06-22T00:28:16;10.43;;;7.13;;
31754;SDS011;18325;52.018;4.726;2023-06-22T00:30:44;9.85;;;6.68;;
31754;SDS011;18325;52.018;4.726;2023-06-22T00:33:11;10.93;;;6.43;;
31754;SDS011;18325;52.018;4.726;2023-06-22T00:35:45;12.10;;;6.70;;
31754;SDS011;18325;52.018;4.726;2023-06-22T00:38:12;9.30;;;6.82;;
31754;SDS011;18325;52.018;4.726;2023-06-22T00:40:45;10.43;;;6.82;;
31754;SDS011;18325;52.018;4.726;2023-06-22T00:43:11;9.00;;;5.60;;
31754;SDS011;18325;52.018;4.726;2023-06-22T00:45:57;11.40;;;6.95;;
31754;SDS011;18325;52.018;4.726;2023-06-22T00:48:36;10.30;;;7.20;;
31754;SDS011;18325;52.018;4.726;2023-06-22T00:51:03;10.50;;;7.25;;
31754;SDS011;18325;52.018;4.726;2023-06-22T00:53:30;11.15;;;6.88;;
31754;SDS011;18325;52.018;4.726;2023-06-22T00:55:59;9.60;;;6.80;;
31754;SDS011;18325;52.018;4.726;2023-06-22T00:58:28;10.25;;;6.40;;
31754;SDS011;18325;52.018;4.726;2023-06-22T01:00:57;11.43;;;7.28;;
31754;SDS011;18325;52.018;4.726;2023-06-22T01:03:25;10.45;;;7.28;;
31754;SDS011;18325;52.018;4.726;2023-06-22T01:05:51;11.13;;;6.70;;
31754;SDS011;18325;52.018;4.726;2023-06-22T01:08:23;10.38;;;7.05;;
31754;SDS011;18325;52.018;4.726;2023-06-22T01:10:58;13.07;;;7.13;;
31754;SDS011;18325;52.018;4.726;2023-06-22T01:13:32;12.38;;;7.32;;
31754;SDS011;18325;52.018;4.726;2023-06-22T01:16:05;12.43;;;7.53;;
31754;SDS011;18325;52.018;4.726;2023-06-22T01:18:35;11.55;;;7.75;;
31754;SDS011;18325;52.018;4.726;2023-06-22T01:21:03;12.75;;;8.27;;
31754;SDS011;18325;52.018;4.726;2023-06-22T01:23:37;14.27;;;8.80;;
31754;SDS011;18325;52.018;4.726;2023-06-22T01:26:17;12.90;;;7.97;;
31754;SDS011;18325;52.018;4.726;2023-06-22T01:28:47;14.05;;;8.57;;
31754;SDS011;18325;52.018;4.726;2023-06-22T01:31:16;14.98;;;9.50;;
31754;SDS011;18325;52.018;4.726;2023-06-22T01:33:46;17.60;;;9.38;;
31754;SDS011;18325;52.018;4.726;2023-06-22T01:36:15;13.60;;;8.98;;
31754;SDS011;18325;52.018;4.726;2023-06-22T01:38:43;14.23;;;9.57;;
31754;SDS011;18325;52.018;4.726;2023-06-22T01:41:21;14.40;;;9.75;;
31754;SDS011;18325;52.018;4.726;2023-06-22T01:43:51;19.10;;;10.60;;
31754;SDS011;18325;52.018;4.726;2023-06-22T01:46:18;16.17;;;10.40;;
31754;SDS011;18325;52.018;4.726;2023-06-22T01:48:45;18.35;;;10.93;;
31754;SDS011;18325;52.018;4.726;2023-06-22T01:51:12;17.35;;;10.80;;
31754;SDS011;18325;52.018;4.726;2023-06-22T01:53:38;16.77;;;10.98;;
31754;SDS011;18325;52.018;4.726;2023-06-22T01:56:05;15.70;;;10.23;;
31754;SDS011;18325;52.018;4.726;2023-06-22T01:58:33;19.52;;;12.18;;
31754;SDS011;18325;52.018;4.726;2023-06-22T02:01:03;17.55;;;11.80;;
31754;SDS011;18325;52.018;4.726;2023-06-22T02:03:37;20.13;;;11.52;;
31754;SDS011;18325;52.018;4.726;2023-06-22T02:06:08;20.25;;;11.95;;
31754;SDS011;18325;52.018;4.726;2023-06-22T02:08:38;18.08;;;11.52;;
31754;SDS011;18325;52.018;4.726;2023-06-22T02:11:29;18.25;;;11.68;;
31754;SDS011;18325;52.018;4.726;2023-06-22T02:13:56;22.55;;;11.82;;
31754;SDS011;18325;52.018;4.726;2023-06-22T02:16:25;18.80;;;12.15;;
31754;SDS011;18325;52.018;4.726;2023-06-22T02:18:54;18.20;;;11.85;;
31754;SDS011;18325;52.018;4.726;2023-06-22T02:21:28;21.02;;;12.15;;
31754;SDS011;18325;52.018;4.726;2023-06-22T02:23:54;19.73;;;13.10;;
31754;SDS011;18325;52.018;4.726;2023-06-22T02:26:21;19.92;;;12.73;;
31754;SDS011;18325;52.018;4.726;2023-06-22T02:28:47;19.17;;;11.45;;
31754;SDS011;18325;52.018;4.726;2023-06-22T02:31:14;18.63;;;11.80;;
31754;SDS011;18325;52.018;4.726;2023-06-22T02:33:42;18.90;;;11.68;;
31754;SDS011;18325;52.018;4.726;2023-06-22T02:36:09;18.40;;;11.75;;
31754;SDS011;18325;52.018;4.726;2023-06-22T02:38:38;18.33;;;12.15;;
31754;SDS011;18325;52.018;4.726;2023-06-22T02:41:05;18.42;;;11.65;;
31754;SDS011;18325;52.018;4.726;2023-06-22T02:43:31;18.20;;;11.93;;
31754;SDS011;18325;52.018;4.726;2023-06-22T02:45:58;21.88;;;11.73;;
31754;SDS011;18325;52.018;4.726;2023-06-22T02:48:24;20.50;;;11.57;;
31754;SDS011;18325;52.018;4.726;2023-06-22T02:50:52;15.90;;;11.70;;
31754;SDS011;18325;52.018;4.726;2023-06-22T02:53:19;18.45;;;11.48;;
31754;SDS011;18325;52.018;4.726;2023-06-22T02:55:45;21.65;;;12.13;;
31754;SDS011;18325;52.018;4.726;2023-06-22T02:58:12;21.67;;;11.85;;
31754;SDS011;18325;52.018;4.726;2023-06-22T03:00:38;22.65;;;11.95;;
31754;SDS011;18325;52.018;4.726;2023-06-22T03:03:05;20.02;;;11.80;;
31754;SDS011;18325;52.018;4.726;2023-06-22T03:05:31;18.70;;;12.13;;
31754;SDS011;18325;52.018;4.726;2023-06-22T03:08:02;18.83;;;12.48;;
31754;SDS011;18325;52.018;4.726;2023-06-22T03:10:29;19.75;;;11.20;;
31754;SDS011;18325;52.018;4.726;2023-06-22T03:12:56;21.17;;;11.18;;
31754;SDS011;18325;52.018;4.726;2023-06-22T03:15:22;19.27;;;12.82;;
31754;SDS011;18325;52.018;4.726;2023-06-22T03:17:54;22.00;;;13.38;;
31754;SDS011;18325;52.018;4.726;2023-06-22T03:20:21;23.63;;;12.85;;
31754;SDS011;18325;52.018;4.726;2023-06-22T03:22:48;20.40;;;12.65;;
31754;SDS011;18325;52.018;4.726;2023-06-22T03:25:16;21.70;;;13.20;;
31754;SDS011;18325;52.018;4.726;2023-06-22T03:27:42;20.17;;;11.85;;
31754;SDS011;18325;52.018;4.726;2023-06-22T03:30:10;22.90;;;13.93;;
31754;SDS011;18325;52.018;4.726;2023-06-22T03:32:39;21.27;;;12.77;;
31754;SDS011;18325;52.018;4.726;2023-06-22T03:35:28;20.80;;;12.85;;
31754;SDS011;18325;52.018;4.726;2023-06-22T03:37:55;22.65;;;13.32;;
31754;SDS011;18325;52.018;4.726;2023-06-22T03:40:23;21.77;;;12.90;;
31754;SDS011;18325;52.018;4.726;2023-06-22T03:42:49;21.38;;;12.30;;
31754;SDS011;18325;52.018;4.726;2023-06-22T03:45:16;21.00;;;13.00;;
31754;SDS011;18325;52.018;4.726;2023-06-22T03:47:42;22.35;;;13.45;;
31754;SDS011;18325;52.018;4.726;2023-06-22T03:50:09;21.48;;;13.25;;
31754;SDS011;18325;52.018;4.726;2023-06-22T03:52:36;19.25;;;12.57;;
31754;SDS011;18325;52.018;4.726;2023-06-22T03:55:03;16.60;;;11.63;;
31754;SDS011;18325;52.018;4.726;2023-06-22T03:57:31;20.88;;;13.82;;
31754;SDS011;18325;52.018;4.726;2023-06-22T03:59:58;19.00;;;12.40;;
31754;SDS011;18325;52.018;4.726;2023-06-22T04:02:25;21.30;;;13.25;;
31754;SDS011;18325;52.018;4.726;2023-06-22T04:04:52;20.67;;;12.38;;
31754;SDS011;18325;52.018;4.726;2023-06-22T04:07:18;20.10;;;11.73;;
31754;SDS011;18325;52.018;4.726;2023-06-22T04:09:44;19.80;;;11.88;;
31754;SDS011;18325;52.018;4.726;2023-06-22T04:12:11;20.98;;;12.43;;
31754;SDS011;18325;52.018;4.726;2023-06-22T04:14:39;20.83;;;13.43;;
31754;SDS011;18325;52.018;4.726;2023-06-22T04:17:05;21.50;;;11.52;;
31754;SDS011;18325;52.018;4.726;2023-06-22T04:19:32;19.75;;;12.15;;
31754;SDS011;18325;52.018;4.726;2023-06-22T04:21:58;20.85;;;12.45;;
31754;SDS011;18325;52.018;4.726;2023-06-22T04:24:25;23.98;;;12.63;;
31754;SDS011;18325;52.018;4.726;2023-06-22T04:26:52;18.10;;;12.05;;
31754;SDS011;18325;52.018;4.726;2023-06-22T04:29:37;17.65;;;12.32;;
31754;SDS011;18325;52.018;4.726;2023-06-22T04:32:19;18.52;;;10.80;;
31754;SDS011;18325;52.018;4.726;2023-06-22T04:34:46;19.15;;;11.93;;
31754;SDS011;18325;52.018;4.726;2023-06-22T04:37:12;16.73;;;10.82;;
31754;SDS011;18325;52.018;4.726;2023-06-22T04:39:40;19.95;;;11.10;;
31754;SDS011;18325;52.018;4.726;2023-06-22T04:42:07;17.00;;;9.98;;
31754;SDS011;18325;52.018;4.726;2023-06-22T04:44:33;18.55;;;11.32;;
31754;SDS011;18325;52.018;4.726;2023-06-22T04:47:01;17.63;;;10.88;;
31754;SDS011;18325;52.018;4.726;2023-06-22T04:49:32;20.52;;;10.88;;
31754;SDS011;18325;52.018;4.726;2023-06-22T04:52:01;19.15;;;11.13;;
31754;SDS011;18325;52.018;4.726;2023-06-22T04:54:28;18.10;;;10.75;;
31754;SDS011;18325;52.018;4.726;2023-06-22T04:56:57;26.38;;;14.02;;
31754;SDS011;18325;52.018;4.726;2023-06-22T04:59:42;19.55;;;12.50;;
31754;SDS011;18325;52.018;4.726;2023-06-22T05:02:10;19.50;;;11.95;;
31754;SDS011;18325;52.018;4.726;2023-06-22T05:04:37;15.90;;;9.85;;
31754;SDS011;18325;52.018;4.726;2023-06-22T05:07:04;20.15;;;13.32;;
31754;SDS011;18325;52.018;4.726;2023-06-22T05:09:31;19.27;;;11.50;;
31754;SDS011;18325;52.018;4.726;2023-06-22T05:11:59;16.17;;;10.50;;
31754;SDS011;18325;52.018;4.726;2023-06-22T05:17:50;16.85;;;10.38;;
31754;SDS011;18325;52.018;4.726;2023-06-22T05:20:17;16.10;;;10.05;;
31754;SDS011;18325;52.018;4.726;2023-06-22T05:22:46;15.40;;;9.88;;
31754;SDS011;18325;52.018;4.726;2023-06-22T05:25:15;17.77;;;10.10;;
31754;SDS011;18325;52.018;4.726;2023-06-22T05:27:42;16.30;;;10.38;;
31754;SDS011;18325;52.018;4.726;2023-06-22T05:30:09;17.52;;;10.73;;
31754;SDS011;18325;52.018;4.726;2023-06-22T05:32:36;16.38;;;9.30;;
31754;SDS011;18325;52.018;4.726;2023-06-22T05:35:05;14.88;;;9.80;;
31754;SDS011;18325;52.018;4.726;2023-06-22T05:37:32;18.23;;;10.32;;
31754;SDS011;18325;52.018;4.726;2023-06-22T05:39:58;16.20;;;10.23;;
31754;SDS011;18325;52.018;4.726;2023-06-22T05:42:31;15.82;;;10.48;;
31754;SDS011;18325;52.018;4.726;2023-06-22T05:45:11;20.38;;;11.15;;
31754;SDS011;18325;52.018;4.726;2023-06-22T05:47:38;17.20;;;10.30;;
31754;SDS011;18325;52.018;4.726;2023-06-22T05:50:07;18.23;;;10.70;;
31754;SDS011;18325;52.018;4.726;2023-06-22T05:52:34;16.55;;;10.00;;
31754;SDS011;18325;52.018;4.726;2023-06-22T05:55:01;16.08;;;9.63;;
31754;SDS011;18325;52.018;4.726;2023-06-22T05:57:28;18.85;;;9.82;;
31754;SDS011;18325;52.018;4.726;2023-06-22T05:59:55;18.75;;;10.10;;
31754;SDS011;18325;52.018;4.726;2023-06-22T06:02:21;19.35;;;10.23;;
31754;SDS011;18325;52.018;4.726;2023-06-22T06:04:48;15.15;;;9.38;;
31754;SDS011;18325;52.018;4.726;2023-06-22T06:10:11;17.98;;;10.80;;
31754;SDS011;18325;52.018;4.726;2023-06-22T06:12:37;17.27;;;9.68;;
31754;SDS011;18325;52.018;4.726;2023-06-22T06:15:04;20.30;;;10.32;;
31754;SDS011;18325;52.018;4.726;2023-06-22T06:17:31;16.25;;;10.45;;
31754;SDS011;18325;52.018;4.726;2023-06-22T06:19:58;14.57;;;10.05;;
31754;SDS011;18325;52.018;4.726;2023-06-22T06:22:25;15.52;;;10.40;;
31754;SDS011;18325;52.018;4.726;2023-06-22T06:24:54;13.75;;;9.93;;
31754;SDS011;18325;52.018;4.726;2023-06-22T06:27:21;14.10;;;9.43;;
31754;SDS011;18325;52.018;4.726;2023-06-22T06:29:54;15.23;;;9.82;;
31754;SDS011;18325;52.018;4.726;2023-06-22T06:32:20;15.80;;;10.38;;
31754;SDS011;18325;52.018;4.726;2023-06-22T06:34:47;15.60;;;9.40;;
31754;SDS011;18325;52.018;4.726;2023-06-22T06:37:13;16.15;;;10.80;;
31754;SDS011;18325;52.018;4.726;2023-06-22T06:39:40;18.60;;;11.57;;
31754;SDS011;18325;52.018;4.726;2023-06-22T06:42:09;17.75;;;10.63;;
31754;SDS011;18325;52.018;4.726;2023-06-22T06:44:36;16.50;;;10.23;;
31754;SDS011;18325;52.018;4.726;2023-06-22T06:47:03;16.08;;;10.00;;
31754;SDS011;18325;52.018;4.726;2023-06-22T06:49:30;15.73;;;10.35;;
31754;SDS011;18325;52.018;4.726;2023-06-22T06:51:56;15.93;;;10.00;;
31754;SDS011;18325;52.018;4.726;2023-06-22T06:54:23;16.90;;;10.05;;
31754;SDS011;18325;52.018;4.726;2023-06-22T06:56:49;16.90;;;10.05;;
31754;SDS011;18325;52.018;4.726;2023-06-22T06:59:17;17.67;;;10.32;;
31754;SDS011;18325;52.018;4.726;2023-06-22T07:01:43;15.52;;;9.35;;
31754;SDS011;18325;52.018;4.726;2023-06-22T07:04:10;17.13;;;9.13;;
31754;SDS011;18325;52.018;4.726;2023-06-22T07:06:39;17.55;;;9.45;;
31754;SDS011;18325;52.018;4.726;2023-06-22T07:09:05;16.10;;;10.00;;
31754;SDS011;18325;52.018;4.726;2023-06-22T07:11:33;15.85;;;9.95;;
31754;SDS011;18325;52.018;4.726;2023-06-22T07:14:01;17.13;;;9.35;;
31754;SDS011;18325;52.018;4.726;2023-06-22T07:16:29;15.77;;;9.45;;
31754;SDS011;18325;52.018;4.726;2023-06-22T07:18:56;16.05;;;9.88;;
31754;SDS011;18325;52.018;4.726;2023-06-22T07:21:23;14.10;;;9.93;;
31754;SDS011;18325;52.018;4.726;2023-06-22T07:23:49;18.88;;;9.45;;
31754;SDS011;18325;52.018;4.726;2023-06-22T07:26:16;17.23;;;9.85;;
31754;SDS011;18325;52.018;4.726;2023-06-22T07:28:42;15.90;;;9.02;;
31754;SDS011;18325;52.018;4.726;2023-06-22T07:31:09;14.60;;;9.82;;
31754;SDS011;18325;52.018;4.726;2023-06-22T07:33:37;17.67;;;10.90;;
31754;SDS011;18325;52.018;4.726;2023-06-22T07:36:03;18.48;;;10.77;;
31754;SDS011;18325;52.018;4.726;2023-06-22T07:38:32;19.30;;;11.23;;
31754;SDS011;18325;52.018;4.726;2023-06-22T07:40:59;20.92;;;10.75;;
31754;SDS011;18325;52.018;4.726;2023-06-22T07:43:25;14.65;;;9.52;;
31754;SDS011;18325;52.018;4.726;2023-06-22T07:45:52;17.88;;;11.00;;
31754;SDS011;18325;52.018;4.726;2023-06-22T07:48:19;14.20;;;8.95;;
31754;SDS011;18325;52.018;4.726;2023-06-22T07:50:51;15.52;;;10.48;;
31754;SDS011;18325;52.018;4.726;2023-06-22T07:53:27;16.77;;;9.90;;
31754;SDS011;18325;52.018;4.726;2023-06-22T07:55:54;17.20;;;10.43;;
31754;SDS011;18325;52.018;4.726;2023-06-22T07:58:21;14.40;;;10.30;;
31754;SDS011;18325;52.018;4.726;2023-06-22T08:00:53;17.88;;;10.95;;
31754;SDS011;18325;52.018;4.726;2023-06-22T08:03:19;17.55;;;11.45;;
31754;SDS011;18325;52.018;4.726;2023-06-22T08:05:46;15.07;;;10.48;;
31754;SDS011;18325;52.018;4.726;2023-06-22T08:08:15;12.30;;;9.52;;
31754;SDS011;18325;52.018;4.726;2023-06-22T08:10:41;18.33;;;10.93;;
31754;SDS011;18325;52.018;4.726;2023-06-22T08:13:08;18.67;;;11.23;;
31754;SDS011;18325;52.018;4.726;2023-06-22T08:15:36;22.02;;;13.60;;
31754;SDS011;18325;52.018;4.726;2023-06-22T08:18:11;22.05;;;14.38;;
31754;SDS011;18325;52.018;4.726;2023-06-22T08:20:38;24.63;;;14.43;;
31754;SDS011;18325;52.018;4.726;2023-06-22T08:23:04;26.75;;;12.88;;
31754;SDS011;18325;52.018;4.726;2023-06-22T08:25:32;21.30;;;14.73;;
31754;SDS011;18325;52.018;4.726;2023-06-22T08:27:59;18.33;;;12.15;;
31754;SDS011;18325;52.018;4.726;2023-06-22T08:30:26;22.25;;;15.13;;
31754;SDS011;18325;52.018;4.726;2023-06-22T08:32:52;24.25;;;15.55;;
31754;SDS011;18325;52.018;4.726;2023-06-22T08:35:20;22.52;;;14.85;;
31754;SDS011;18325;52.018;4.726;2023-06-22T08:37:47;20.67;;;12.93;;
31754;SDS011;18325;52.018;4.726;2023-06-22T08:40:19;21.30;;;14.52;;
31754;SDS011;18325;52.018;4.726;2023-06-22T08:42:47;24.08;;;13.73;;
31754;SDS011;18325;52.018;4.726;2023-06-22T08:45:14;20.10;;;13.40;;
31754;SDS011;18325;52.018;4.726;2023-06-22T08:47:41;19.90;;;13.48;;
31754;SDS011;18325;52.018;4.726;2023-06-22T08:50:08;18.52;;;13.45;;
31754;SDS011;18325;52.018;4.726;2023-06-22T08:52:35;16.23;;;11.77;;
31754;SDS011;18325;52.018;4.726;2023-06-22T08:55:02;18.25;;;11.98;;
31754;SDS011;18325;52.018;4.726;2023-06-22T08:57:29;17.48;;;11.73;;
31754;SDS011;18325;52.018;4.726;2023-06-22T08:59:59;17.17;;;11.15;;
31754;SDS011;18325;52.018;4.726;2023-06-22T09:02:26;17.55;;;11.38;;
31754;SDS011;18325;52.018;4.726;2023-06-22T09:04:56;17.10;;;11.10;;
31754;SDS011;18325;52.018;4.726;2023-06-22T09:07:23;21.77;;;10.80;;
31754;SDS011;18325;52.018;4.726;2023-06-22T09:09:50;17.50;;;11.25;;
31754;SDS011;18325;52.018;4.726;2023-06-22T09:12:17;19.52;;;10.88;;
31754;SDS011;18325;52.018;4.726;2023-06-22T09:14:45;17.27;;;10.27;;
31754;SDS011;18325;52.018;4.726;2023-06-22T09:17:13;16.90;;;9.45;;
31754;SDS011;18325;52.018;4.726;2023-06-22T09:19:40;13.75;;;9.18;;
31754;SDS011;18325;52.018;4.726;2023-06-22T09:22:06;14.27;;;8.32;;
31754;SDS011;18325;52.018;4.726;2023-06-22T09:24:34;14.40;;;9.25;;
31754;SDS011;18325;52.018;4.726;2023-06-22T09:27:01;14.10;;;8.32;;
31754;SDS011;18325;52.018;4.726;2023-06-22T09:29:28;13.00;;;7.65;;
31754;SDS011;18325;52.018;4.726;2023-06-22T09:32:00;11.40;;;7.63;;
31754;SDS011;18325;52.018;4.726;2023-06-22T09:34:37;11.25;;;8.15;;
31754;SDS011;18325;52.018;4.726;2023-06-22T09:37:04;12.82;;;7.88;;
31754;SDS011;18325;52.018;4.726;2023-06-22T09:39:33;8.50;;;7.13;;
31754;SDS011;18325;52.018;4.726;2023-06-22T09:42:01;15.73;;;8.50;;
31754;SDS011;18325;52.018;4.726;2023-06-22T09:44:27;13.55;;;8.38;;
31754;SDS011;18325;52.018;4.726;2023-06-22T09:46:54;13.82;;;8.55;;
31754;SDS011;18325;52.018;4.726;2023-06-22T09:49:20;11.32;;;8.10;;
31754;SDS011;18325;52.018;4.726;2023-06-22T09:51:48;15.50;;;8.43;;
31754;SDS011;18325;52.018;4.726;2023-06-22T09:54:16;13.50;;;7.75;;
31754;SDS011;18325;52.018;4.726;2023-06-22T09:56:42;11.57;;;8.65;;
31754;SDS011;18325;52.018;4.726;2023-06-22T09:59:09;12.95;;;8.57;;
31754;SDS011;18325;52.018;4.726;2023-06-22T10:01:35;17.15;;;9.27;;
31754;SDS011;18325;52.018;4.726;2023-06-22T10:04:12;12.05;;;8.30;;
31754;SDS011;18325;52.018;4.726;2023-06-22T10:06:38;13.95;;;9.02;;
31754;SDS011;18325;52.018;4.726;2023-06-22T10:09:07;10.05;;;7.22;;
31754;SDS011;18325;52.018;4.726;2023-06-22T10:12:10;11.40;;;7.35;;
31754;SDS011;18325;52.018;4.726;2023-06-22T10:14:36;8.40;;;6.80;;
31754;SDS011;18325;52.018;4.726;2023-06-22T10:17:06;11.65;;;7.80;;
31754;SDS011;18325;52.018;4.726;2023-06-22T10:19:34;16.75;;;8.10;;
31754;SDS011;18325;52.018;4.726;2023-06-22T10:22:02;14.10;;;8.20;;
31754;SDS011;18325;52.018;4.726;2023-06-22T10:24:35;9.63;;;7.50;;
31754;SDS011;18325;52.018;4.726;2023-06-22T10:27:03;13.18;;;7.20;;
31754;SDS011;18325;52.018;4.726;2023-06-22T10:29:30;9.20;;;7.07;;
31754;SDS011;18325;52.018;4.726;2023-06-22T10:31:57;9.45;;;6.47;;
31754;SDS011;18325;52.018;4.726;2023-06-22T10:34:25;8.95;;;6.85;;
31754;SDS011;18325;52.018;4.726;2023-06-22T10:36:52;12.98;;;6.93;;
31754;SDS011;18325;52.018;4.726;2023-06-22T10:39:19;10.23;;;8.02;;
31754;SDS011;18325;52.018;4.726;2023-06-22T10:41:47;14.68;;;9.13;;
31754;SDS011;18325;52.018;4.726;2023-06-22T10:44:13;15.10;;;11.40;;
31754;SDS011;18325;52.018;4.726;2023-06-22T10:46:40;12.98;;;9.13;;
31754;SDS011;18325;52.018;4.726;2023-06-22T10:49:06;18.05;;;10.75;;
31754;SDS011;18325;52.018;4.726;2023-06-22T10:51:33;18.25;;;10.70;;
31754;SDS011;18325;52.018;4.726;2023-06-22T10:53:59;13.20;;;10.13;;
31754;SDS011;18325;52.018;4.726;2023-06-22T10:56:25;15.63;;;11.23;;
31754;SDS011;18325;52.018;4.726;2023-06-22T10:58:53;17.52;;;11.68;;
31754;SDS011;18325;52.018;4.726;2023-06-22T11:01:20;14.38;;;10.25;;
31754;SDS011;18325;52.018;4.726;2023-06-22T11:03:46;16.23;;;10.55;;
31754;SDS011;18325;52.018;4.726;2023-06-22T11:06:14;19.27;;;11.10;;
31754;SDS011;18325;52.018;4.726;2023-06-22T11:08:43;13.85;;;10.50;;
31754;SDS011;18325;52.018;4.726;2023-06-22T11:11:10;13.07;;;10.50;;
31754;SDS011;18325;52.018;4.726;2023-06-22T11:13:36;15.32;;;10.93;;
31754;SDS011;18325;52.018;4.726;2023-06-22T11:16:05;17.38;;;11.10;;
31754;SDS011;18325;52.018;4.726;2023-06-22T11:18:32;15.25;;;10.57;;
31754;SDS011;18325;52.018;4.726;2023-06-22T11:20:58;14.23;;;10.00;;
31754;SDS011;18325;52.018;4.726;2023-06-22T11:23:25;14.20;;;9.98;;
31754;SDS011;18325;52.018;4.726;2023-06-22T11:25:52;13.13;;;9.65;;
31754;SDS011;18325;52.018;4.726;2023-06-22T11:28:19;11.82;;;8.48;;
31754;SDS011;18325;52.018;4.726;2023-06-22T11:30:45;15.00;;;9.50;;
31754;SDS011;18325;52.018;4.726;2023-06-22T11:33:13;14.10;;;9.95;;
31754;SDS011;18325;52.018;4.726;2023-06-22T11:35:40;16.90;;;11.07;;
31754;SDS011;18325;52.018;4.726;2023-06-22T11:38:06;17.23;;;11.50;;
31754;SDS011;18325;52.018;4.726;2023-06-22T11:40:33;20.98;;;12.43;;
31754;SDS011;18325;52.018;4.726;2023-06-22T11:42:59;18.55;;;13.40;;
31754;SDS011;18325;52.018;4.726;2023-06-22T11:45:26;20.35;;;13.70;;
31754;SDS011;18325;52.018;4.726;2023-06-22T11:47:53;21.10;;;14.35;;
31754;SDS011;18325;52.018;4.726;2023-06-22T11:50:20;18.40;;;13.95;;
31754;SDS011;18325;52.018;4.726;2023-06-22T11:52:56;19.70;;;14.45;;
31754;SDS011;18325;52.018;4.726;2023-06-22T11:55:23;25.13;;;15.00;;
31754;SDS011;18325;52.018;4.726;2023-06-22T11:57:53;22.90;;;14.93;;
31754;SDS011;18325;52.018;4.726;2023-06-22T12:00:21;23.83;;;14.55;;
31754;SDS011;18325;52.018;4.726;2023-06-22T12:02:49;20.98;;;14.13;;
31754;SDS011;18325;52.018;4.726;2023-06-22T12:05:16;19.17;;;14.93;;
31754;SDS011;18325;52.018;4.726;2023-06-22T12:07:44;21.15;;;14.35;;
31754;SDS011;18325;52.018;4.726;2023-06-22T12:10:10;22.02;;;15.00;;
31754;SDS011;18325;52.018;4.726;2023-06-22T12:12:37;21.63;;;15.15;;
31754;SDS011;18325;52.018;4.726;2023-06-22T12:15:04;24.70;;;15.27;;
31754;SDS011;18325;52.018;4.726;2023-06-22T12:17:31;23.33;;;15.30;;
31754;SDS011;18325;52.018;4.726;2023-06-22T12:19:58;22.23;;;15.93;;
31754;SDS011;18325;52.018;4.726;2023-06-22T12:22:24;22.02;;;15.20;;
31754;SDS011;18325;52.018;4.726;2023-06-22T12:24:52;22.83;;;15.65;;
31754;SDS011;18325;52.018;4.726;2023-06-22T12:27:19;24.20;;;16.38;;
31754;SDS011;18325;52.018;4.726;2023-06-22T12:29:45;24.58;;;16.65;;
31754;SDS011;18325;52.018;4.726;2023-06-22T12:32:12;22.25;;;16.17;;
31754;SDS011;18325;52.018;4.726;2023-06-22T12:34:39;24.20;;;17.02;;
31754;SDS011;18325;52.018;4.726;2023-06-22T12:37:06;24.80;;;16.80;;
31754;SDS011;18325;52.018;4.726;2023-06-22T12:39:32;24.42;;;17.63;;
31754;SDS011;18325;52.018;4.726;2023-06-22T12:42:03;25.55;;;16.55;;
31754;SDS011;18325;52.018;4.726;2023-06-22T12:44:33;23.23;;;15.85;;
31754;SDS011;18325;52.018;4.726;2023-06-22T12:47:00;26.38;;;17.33;;
31754;SDS011;18325;52.018;4.726;2023-06-22T12:49:27;26.45;;;17.33;;
31754;SDS011;18325;52.018;4.726;2023-06-22T12:51:53;25.33;;;15.93;;
31754;SDS011;18325;52.018;4.726;2023-06-22T12:54:20;22.33;;;16.27;;
31754;SDS011;18325;52.018;4.726;2023-06-22T12:56:46;22.88;;;15.63;;
31754;SDS011;18325;52.018;4.726;2023-06-22T12:59:14;26.35;;;17.80;;
31754;SDS011;18325;52.018;4.726;2023-06-22T13:01:42;24.77;;;15.48;;
31754;SDS011;18325;52.018;4.726;2023-06-22T13:04:10;24.30;;;16.75;;
31754;SDS011;18325;52.018;4.726;2023-06-22T13:06:39;27.02;;;16.38;;
31754;SDS011;18325;52.018;4.726;2023-06-22T13:09:06;25.13;;;16.48;;
31754;SDS011;18325;52.018;4.726;2023-06-22T13:11:33;29.52;;;16.75;;
31754;SDS011;18325;52.018;4.726;2023-06-22T13:17:28;25.20;;;15.80;;
31754;SDS011;18325;52.018;4.726;2023-06-22T13:19:54;26.05;;;17.17;;
31754;SDS011;18325;52.018;4.726;2023-06-22T13:22:26;24.42;;;15.63;;
31754;SDS011;18325;52.018;4.726;2023-06-22T13:24:54;22.15;;;16.58;;
31754;SDS011;18325;52.018;4.726;2023-06-22T13:27:21;27.05;;;16.63;;
31754;SDS011;18325;52.018;4.726;2023-06-22T13:29:49;26.10;;;14.95;;
31754;SDS011;18325;52.018;4.726;2023-06-22T13:32:16;21.45;;;16.42;;
31754;SDS011;18325;52.018;4.726;2023-06-22T13:34:48;25.02;;;15.60;;
31754;SDS011;18325;52.018;4.726;2023-06-22T13:37:35;23.60;;;14.80;;
31754;SDS011;18325;52.018;4.726;2023-06-22T13:40:01;24.23;;;16.50;;
31754;SDS011;18325;52.018;4.726;2023-06-22T13:42:30;24.75;;;16.33;;
31754;SDS011;18325;52.018;4.726;2023-06-22T13:44:57;29.85;;;16.33;;
31754;SDS011;18325;52.018;4.726;2023-06-22T13:47:23;19.73;;;15.13;;
31754;SDS011;18325;52.018;4.726;2023-06-22T13:49:52;23.02;;;16.30;;
31754;SDS011;18325;52.018;4.726;2023-06-22T13:52:18;25.27;;;17.30;;
31754;SDS011;18325;52.018;4.726;2023-06-22T13:54:45;25.92;;;16.10;;
31754;SDS011;18325;52.018;4.726;2023-06-22T13:57:11;25.20;;;15.07;;
31754;SDS011;18325;52.018;4.726;2023-06-22T13:59:38;22.58;;;14.60;;
31754;SDS011;18325;52.018;4.726;2023-06-22T14:05:08;19.80;;;13.65;;
31754;SDS011;18325;52.018;4.726;2023-06-22T14:07:36;20.10;;;12.80;;
31754;SDS011;18325;52.018;4.726;2023-06-22T14:10:02;16.50;;;11.90;;
31754;SDS011;18325;52.018;4.726;2023-06-22T14:12:29;16.13;;;11.05;;
31754;SDS011;18325;52.018;4.726;2023-06-22T14:14:56;13.65;;;9.60;;
31754;SDS011;18325;52.018;4.726;2023-06-22T14:17:23;13.88;;;9.63;;
31754;SDS011;18325;52.018;4.726;2023-06-22T14:19:51;14.82;;;9.23;;
31754;SDS011;18325;52.018;4.726;2023-06-22T14:22:19;13.18;;;8.88;;
31754;SDS011;18325;52.018;4.726;2023-06-22T14:24:46;11.77;;;8.18;;
31754;SDS011;18325;52.018;4.726;2023-06-22T14:27:13;12.77;;;8.90;;
31754;SDS011;18325;52.018;4.726;2023-06-22T14:29:39;14.75;;;9.05;;
31754;SDS011;18325;52.018;4.726;2023-06-22T14:32:06;14.35;;;8.73;;
31754;SDS011;18325;52.018;4.726;2023-06-22T14:34:33;15.18;;;9.23;;
31754;SDS011;18325;52.018;4.726;2023-06-22T14:37:01;13.55;;;8.90;;
31754;SDS011;18325;52.018;4.726;2023-06-22T14:39:29;13.13;;;9.35;;
31754;SDS011;18325;52.018;4.726;2023-06-22T14:41:55;18.65;;;9.07;;
31754;SDS011;18325;52.018;4.726;2023-06-22T14:44:22;13.25;;;8.20;;